createdAt,value
2023-03-26T00:02:23.457Z,88.50
2023-03-26T00:05:49.297Z,88.80
2023-03-26T00:09:14.426Z,88.30
2023-03-26T00:12:36.738Z,88.30
2023-03-26T00:15:59.849Z,88.30
2023-03-26T00:19:22.862Z,88.10
2023-03-26T00:22:45.474Z,88.10
2023-03-26T00:26:13.622Z,87.90
2023-03-26T00:29:35.958Z,87.90
2023-03-26T00:32:58.222Z,88.00
2023-03-26T00:36:21.465Z,88.30
2023-03-26T00:39:44.574Z,87.70
2023-03-26T00:43:18.576Z,87.60
2023-03-26T00:46:41.182Z,87.60
2023-03-26T00:50:04.326Z,87.50
2023-03-26T00:53:26.675Z,87.30
2023-03-26T00:56:48.944Z,87.40
2023-03-26T01:00:15.313Z,87.30
2023-03-26T01:03:38.672Z,87.20
2023-03-26T01:07:14.363Z,87.10
2023-03-26T01:10:38.761Z,87.00
2023-03-26T01:14:11.851Z,86.90
2023-03-26T01:17:37.853Z,86.90
2023-03-26T01:21:05.410Z,86.70
2023-03-26T01:24:27.768Z,86.70
2023-03-26T01:27:55.939Z,86.70
2023-03-26T01:31:45.009Z,86.70
2023-03-26T01:35:19.442Z,86.50
2023-03-26T01:38:46.810Z,86.60
2023-03-26T01:42:16.163Z,86.60
2023-03-26T01:45:41.323Z,86.50
2023-03-26T01:49:04.774Z,86.40
2023-03-26T01:52:27.602Z,86.40
2023-03-26T01:56:05.134Z,86.30
2023-03-26T01:59:56.365Z,86.20
2023-03-26T02:03:30.321Z,86.20
2023-03-26T02:07:22.540Z,86.20
2023-03-26T02:10:48.031Z,86.10
2023-03-26T02:14:12.706Z,86.20
2023-03-26T02:17:36.349Z,86.00
2023-03-26T02:20:58.639Z,86.00
2023-03-26T02:24:21.126Z,86.00
2023-03-26T02:27:50.852Z,86.00
2023-03-26T02:31:17.187Z,86.00
2023-03-26T02:34:43.174Z,86.00
2023-03-26T02:38:06.735Z,85.90
2023-03-26T02:41:29.026Z,85.90
2023-03-26T02:45:01.704Z,85.90
2023-03-26T02:48:29.956Z,85.90
2023-03-26T02:52:06.663Z,85.80
2023-03-26T02:55:30.331Z,85.70
2023-03-26T02:58:55.429Z,85.80
2023-03-26T03:02:18.316Z,85.80
2023-03-26T03:05:43.321Z,85.80
2023-03-26T03:09:25.314Z,85.70
2023-03-26T03:13:07.875Z,85.80
2023-03-26T03:16:31.109Z,85.80
2023-03-26T03:19:58.590Z,85.70
2023-03-26T03:23:21.627Z,86.60
2023-03-26T03:26:47.679Z,85.70
2023-03-26T03:30:30.933Z,85.70
2023-03-26T03:34:04.638Z,86.60
2023-03-26T03:37:30.884Z,85.80
2023-03-26T03:40:55.539Z,85.80
2023-03-26T03:44:21.444Z,85.70
2023-03-26T03:47:44.577Z,85.70
2023-03-26T03:51:08.442Z,85.70
2023-03-26T03:54:51.151Z,85.70
2023-03-26T03:58:24.046Z,85.90
2023-03-26T04:01:48.524Z,85.70
2023-03-26T04:05:31.003Z,85.80
2023-03-26T04:08:53.462Z,85.80
2023-03-26T04:12:16.235Z,85.80
2023-03-26T04:15:48.425Z,85.70
2023-03-26T04:19:11.191Z,85.70
2023-03-26T04:22:35.123Z,85.80
2023-03-26T04:26:04.274Z,86.00
2023-03-26T04:30:01.663Z,85.60
2023-03-26T04:33:25.042Z,85.60
2023-03-26T04:36:48.710Z,85.50
2023-03-26T04:40:20.247Z,85.50
2023-03-26T04:44:09.057Z,85.50
2023-03-26T04:47:41.283Z,85.50
2023-03-26T04:51:07.058Z,85.50
2023-03-26T04:54:29.707Z,85.50
2023-03-26T04:58:05.363Z,85.30
2023-03-26T05:01:50.441Z,85.30
2023-03-26T05:05:13.275Z,85.20
2023-03-26T05:08:35.854Z,85.20
2023-03-26T05:11:58.459Z,85.20
2023-03-26T05:15:21.302Z,85.10
2023-03-26T05:18:52.699Z,85.00
2023-03-26T05:22:15.526Z,85.70
2023-03-26T05:25:57.939Z,85.60
2023-03-26T05:29:22.362Z,85.50
2023-03-26T05:32:49.279Z,85.50
2023-03-26T05:36:15.479Z,85.50
2023-03-26T05:39:54.458Z,85.00
2023-03-26T05:43:44.793Z,85.70
2023-03-26T05:47:14.240Z,85.70
2023-03-26T05:50:36.552Z,85.80
2023-03-26T05:53:59.714Z,85.50
2023-03-26T05:57:54.513Z,85.60
2023-03-26T06:01:35.583Z,85.50
2023-03-26T06:05:16.252Z,85.40
2023-03-26T06:09:07.854Z,85.50
2023-03-26T06:12:30.163Z,85.60
2023-03-26T06:15:52.652Z,85.50
2023-03-26T06:19:26.808Z,85.50
2023-03-26T06:22:56.437Z,85.50
2023-03-26T06:26:37.605Z,85.50
2023-03-26T06:30:25.936Z,85.50
2023-03-26T06:33:56.078Z,85.40
2023-03-26T06:37:18.497Z,85.40
2023-03-26T06:40:42.393Z,85.50
2023-03-26T06:44:22.998Z,85.40
2023-03-26T06:48:04.493Z,84.60
2023-03-26T06:51:46.556Z,83.80
2023-03-26T06:55:11.518Z,83.90
2023-03-26T06:58:52.617Z,84.20
2023-03-26T07:02:26.600Z,85.50
2023-03-26T07:06:07.774Z,84.50
2023-03-26T07:09:48.753Z,85.20
2023-03-26T07:13:34.282Z,87.20
2023-03-26T07:17:16.494Z,86.60
2023-03-26T07:21:01.743Z,86.00
2023-03-26T07:24:27.345Z,85.50
2023-03-26T07:28:25.599Z,85.70
2023-03-26T07:32:28.032Z,84.90
2023-03-26T07:36:28.670Z,85.30
2023-03-26T07:40:34.566Z,86.00
2023-03-26T07:44:27.882Z,83.90
2023-03-26T07:48:21.075Z,84.30
2023-03-26T07:52:03.892Z,84.60
2023-03-26T07:55:53.127Z,84.50
2023-03-26T08:00:00.909Z,86.00
2023-03-26T08:04:23.713Z,85.50
2023-03-26T08:08:21.872Z,85.60
2023-03-26T08:12:29.199Z,85.70
2023-03-26T08:16:05.635Z,86.00
2023-03-26T08:19:34.413Z,85.60
2023-03-26T08:23:05.614Z,86.20
2023-03-26T08:26:39.589Z,86.90
2023-03-26T08:30:24.092Z,85.90
2023-03-26T08:33:46.833Z,86.80
2023-03-26T08:37:09.911Z,86.90
2023-03-26T08:41:19.087Z,86.80
2023-03-26T08:45:17.027Z,86.70
2023-03-26T08:49:01.485Z,85.50
2023-03-26T08:52:34.371Z,86.70
2023-03-26T08:56:05.665Z,86.20
2023-03-26T08:59:57.515Z,87.00
2023-03-26T09:03:28.315Z,86.90
2023-03-26T09:07:16.251Z,86.70
2023-03-26T09:10:47.384Z,85.60
2023-03-26T09:14:43.264Z,85.50
2023-03-26T09:18:05.853Z,91.10
2023-03-26T09:21:52.420Z,91.10
2023-03-26T09:25:44.878Z,92.50
2023-03-26T09:29:35.047Z,92.60
2023-03-26T09:33:00.132Z,93.00
2023-03-26T09:36:54.741Z,92.70
2023-03-26T09:40:22.613Z,92.90
2023-03-26T09:44:15.670Z,92.60
2023-03-26T09:47:53.010Z,92.90
2023-03-26T09:51:20.773Z,92.50
2023-03-26T09:55:00.402Z,87.90
2023-03-26T09:59:06.885Z,88.80
2023-03-26T10:02:46.614Z,89.60
2023-03-26T10:06:31.307Z,90.00
2023-03-26T10:10:43.556Z,89.90
2023-03-26T10:14:32.491Z,89.00
2023-03-26T10:18:02.941Z,88.70
2023-03-26T10:22:12.439Z,88.50
2023-03-26T10:25:49.445Z,88.40
2023-03-26T10:29:30.246Z,87.90
2023-03-26T10:33:21.768Z,87.80
2023-03-26T10:37:16.549Z,88.30
2023-03-26T10:40:57.269Z,89.10
2023-03-26T10:44:31.807Z,90.00
2023-03-26T10:48:41.986Z,89.80
2023-03-26T10:52:12.854Z,90.20
2023-03-26T10:55:39.499Z,90.20
2023-03-26T10:59:06.909Z,90.60
2023-03-26T11:02:36.567Z,90.50
2023-03-26T11:06:30.623Z,90.10
2023-03-26T11:10:11.850Z,90.00
2023-03-26T11:14:15.138Z,90.10
2023-03-26T11:18:01.069Z,90.20
2023-03-26T11:21:34.393Z,90.50
2023-03-26T11:25:15.300Z,90.80
2023-03-26T11:29:31.077Z,90.70
2023-03-26T11:32:55.479Z,90.80
2023-03-26T11:36:21.486Z,91.10
2023-03-26T11:39:55.211Z,91.40
2023-03-26T11:43:27.920Z,91.30
2023-03-26T11:46:58.743Z,91.50
2023-03-26T11:50:27.117Z,91.40
2023-03-26T11:53:49.715Z,91.60
2023-03-26T11:57:19.036Z,91.80
2023-03-26T12:00:42.268Z,91.80
2023-03-26T12:04:14.273Z,91.50
2023-03-26T12:07:37.273Z,91.10
2023-03-26T12:11:11.738Z,91.30
2023-03-26T12:14:35.454Z,92.20
2023-03-26T12:18:20.862Z,91.30
2023-03-26T12:21:48.633Z,92.70
2023-03-26T12:25:18.549Z,90.60
2023-03-26T12:28:46.145Z,90.50
2023-03-26T12:32:14.562Z,89.70
2023-03-26T12:35:36.973Z,90.70
2023-03-26T12:39:15.977Z,90.20
2023-03-26T12:44:48.416Z,89.60
2023-03-26T12:47:56.321Z,89.80
2023-03-26T12:50:15.951Z,87.70
2023-03-26T12:53:47.459Z,87.50
2023-03-26T12:57:22.847Z,88.80
2023-03-26T13:01:03.180Z,88.50
2023-03-26T13:05:04.947Z,87.80
2023-03-26T13:08:57.642Z,85.70
2023-03-26T13:12:28.534Z,87.30
2023-03-26T13:16:01.070Z,87.10
2023-03-26T13:20:03.031Z,86.30
2023-03-26T13:23:52.695Z,87.30
2023-03-26T13:27:51.852Z,88.20
2023-03-26T13:31:36.849Z,88.80
2023-03-26T13:35:36.546Z,88.80
2023-03-26T13:39:17.268Z,89.40
2023-03-26T13:42:48.269Z,89.70
2023-03-26T13:46:10.574Z,89.60
2023-03-26T13:49:51.883Z,89.80
2023-03-26T13:53:29.348Z,89.70
2023-03-26T13:57:24.818Z,89.40
2023-03-26T14:01:05.355Z,89.30
2023-03-26T14:04:41.460Z,90.20
2023-03-26T14:08:12.999Z,90.30
2023-03-26T14:11:56.662Z,90.40
2023-03-26T14:15:19.107Z,90.40
2023-03-26T14:18:44.960Z,90.50
2023-03-26T14:22:25.364Z,90.50
2023-03-26T14:26:06.783Z,90.50
2023-03-26T14:30:02.115Z,90.50
2023-03-26T14:33:34.197Z,90.60
2023-03-26T14:37:27.925Z,90.60
2023-03-26T14:41:11.100Z,90.30
2023-03-26T14:44:47.625Z,90.50
2023-03-26T14:48:29.311Z,90.30
2023-03-26T14:52:13.732Z,90.30
2023-03-26T14:55:54.248Z,90.20
2023-03-26T14:59:51.153Z,90.20
2023-03-26T15:03:13.410Z,90.20
2023-03-26T15:07:01.471Z,90.30
2023-03-26T15:10:49.579Z,90.20
2023-03-26T15:14:24.056Z,90.20
2023-03-26T15:18:06.191Z,90.00
2023-03-26T15:21:34.409Z,89.70
2023-03-26T15:25:05.838Z,90.10
2023-03-26T15:28:41.574Z,90.20
2023-03-26T15:32:42.142Z,90.50
2023-03-26T15:36:28.669Z,90.00
2023-03-26T15:39:59.150Z,89.50
2023-03-26T15:43:22.634Z,89.80
2023-03-26T15:46:50.871Z,90.00
2023-03-26T15:50:32.027Z,89.70
2023-03-26T15:54:16.540Z,89.70
2023-03-26T15:57:57.757Z,90.20
2023-03-26T16:02:03.012Z,90.30
2023-03-26T16:05:37.143Z,87.60
2023-03-26T16:09:14.831Z,89.50
2023-03-26T16:13:15.730Z,90.00
2023-03-26T16:16:59.181Z,90.10
2023-03-26T16:20:55.481Z,90.10
2023-03-26T16:24:23.359Z,90.10
2023-03-26T16:27:46.196Z,90.10
2023-03-26T16:31:23.653Z,90.10
2023-03-26T16:34:55.242Z,90.10
2023-03-26T16:38:19.099Z,90.10
2023-03-26T16:41:50.080Z,89.90
2023-03-26T16:45:22.959Z,90.10
2023-03-26T16:49:15.733Z,90.20
2023-03-26T16:53:03.868Z,90.30
2023-03-26T16:56:38.802Z,90.40
2023-03-26T17:00:08.231Z,90.10
2023-03-26T17:03:35.349Z,90.20
2023-03-26T17:07:16.307Z,90.30
2023-03-26T17:10:53.400Z,90.20
2023-03-26T17:14:33.506Z,90.40
2023-03-26T17:18:01.767Z,90.40
2023-03-26T17:21:55.545Z,90.40
2023-03-26T17:25:32.854Z,89.00
2023-03-26T17:29:22.179Z,90.30
2023-03-26T17:33:00.009Z,90.40
2023-03-26T17:36:39.973Z,90.20
2023-03-26T17:40:02.237Z,89.80
2023-03-26T17:43:36.024Z,90.20
2023-03-26T17:47:00.809Z,90.30
2023-03-26T17:50:31.686Z,90.40
2023-03-26T17:53:54.527Z,90.50
2023-03-26T17:57:32.022Z,90.60
2023-03-26T18:01:23.543Z,90.60
2023-03-26T18:04:49.248Z,90.80
2023-03-26T18:08:29.688Z,90.60
2023-03-26T18:12:29.452Z,91.20
2023-03-26T18:16:07.267Z,91.00
2023-03-26T18:19:31.879Z,91.60
2023-03-26T18:22:55.129Z,92.00
2023-03-26T18:26:40.239Z,92.10
2023-03-26T18:30:22.701Z,92.20
2023-03-26T18:33:48.555Z,92.10
2023-03-26T18:37:20.130Z,92.10
2023-03-26T18:40:44.093Z,92.20
2023-03-26T18:44:13.233Z,91.70
2023-03-26T18:47:38.127Z,92.30
2023-03-26T18:51:05.796Z,91.30
2023-03-26T18:54:34.197Z,91.70
2023-03-26T18:57:57.496Z,91.10
2023-03-26T19:01:25.882Z,91.10
2023-03-26T19:04:50.813Z,90.50
2023-03-26T19:08:13.496Z,91.90
2023-03-26T19:11:38.470Z,91.10
2023-03-26T19:15:12.503Z,90.40
2023-03-26T19:18:40.233Z,90.70
2023-03-26T19:22:07.495Z,90.90
2023-03-26T19:25:36.831Z,91.30
2023-03-26T19:29:00.732Z,91.10
2023-03-26T19:32:32.889Z,90.60
2023-03-26T19:36:14.996Z,90.80
2023-03-26T19:39:41.648Z,91.10
2023-03-26T19:43:04.537Z,91.30
2023-03-26T19:46:32.183Z,91.00
2023-03-26T19:49:57.211Z,90.40
2023-03-26T19:53:24.155Z,90.50
2023-03-26T19:56:46.543Z,92.00
2023-03-26T20:00:19.058Z,91.50
2023-03-26T20:03:43.397Z,91.70
2023-03-26T20:07:14.637Z,91.50
2023-03-26T20:10:36.885Z,91.80
2023-03-26T20:14:01.317Z,91.70
2023-03-26T20:17:23.565Z,91.80
2023-03-26T20:20:46.002Z,91.60
2023-03-26T20:24:16.749Z,91.80
2023-03-26T20:27:39.002Z,91.60
2023-03-26T20:31:01.468Z,91.60
2023-03-26T20:34:24.946Z,91.60
2023-03-26T20:37:47.405Z,91.60
2023-03-26T20:41:22.838Z,91.80
2023-03-26T20:44:45.169Z,91.50
2023-03-26T20:48:10.610Z,91.40
2023-03-26T20:51:32.842Z,91.50
2023-03-26T20:54:55.485Z,91.50
2023-03-26T20:58:31.356Z,91.50
2023-03-26T21:01:56.606Z,91.40
2023-03-26T21:05:26.901Z,91.40
2023-03-26T21:08:49.559Z,92.70
2023-03-26T21:12:24.892Z,92.90
2023-03-26T21:15:47.407Z,94.10
2023-03-26T21:19:10.410Z,95.80
2023-03-26T21:26:01.514Z,96.60
2023-03-26T21:29:24.063Z,96.40
2023-03-26T21:32:47.022Z,97.00
2023-03-26T21:36:10.856Z,97.10
2023-03-26T21:39:33.448Z,97.20
2023-03-26T21:42:56.249Z,96.70
2023-03-26T21:46:19.032Z,97.10
2023-03-26T21:49:41.637Z,97.30
2023-03-26T21:53:04.510Z,97.50
2023-03-26T21:56:32.816Z,97.90
2023-03-26T22:00:15.529Z,97.90
2023-03-26T22:03:56.400Z,98.40
2023-03-26T22:07:38.671Z,98.20
2023-03-26T22:11:01.390Z,98.50
2023-03-26T22:14:25.759Z,98.70
2023-03-26T22:17:55.566Z,98.70
2023-03-26T22:21:18.006Z,98.70
2023-03-26T22:24:40.443Z,98.90
2023-03-26T22:28:04.402Z,99.00
2023-03-26T22:31:26.802Z,99.20
2023-03-26T22:34:49.098Z,99.10
2023-03-26T22:38:11.827Z,99.10
2023-03-26T22:41:34.087Z,99.10
2023-03-26T22:44:56.363Z,99.20
2023-03-26T22:48:18.841Z,99.10
2023-03-26T22:51:41.392Z,98.90
2023-03-26T22:55:05.335Z,99.20
2023-03-26T22:58:28.272Z,99.20
2023-03-26T23:01:50.929Z,99.30
2023-03-26T23:05:14.424Z,99.10
2023-03-26T23:08:38.281Z,99.20
2023-03-26T23:12:00.618Z,99.10
2023-03-26T23:15:25.836Z,99.10
2023-03-26T23:18:47.973Z,99.10
2023-03-26T23:22:10.253Z,99.00
2023-03-26T23:25:33.220Z,99.00
2023-03-26T23:28:55.559Z,99.10
2023-03-26T23:32:24.680Z,99.00
2023-03-26T23:35:49.979Z,98.80
2023-03-26T23:39:12.345Z,98.60
2023-03-26T23:42:34.979Z,98.40
2023-03-26T23:45:59.455Z,98.20
2023-03-26T23:49:21.997Z,98.70
2023-03-26T23:52:45.548Z,98.70
2023-03-26T23:56:08.330Z,98.30
2023-03-26T23:59:30.641Z,98.50
